Fort Wayne, IN (46801)

7:44 PM EDT on August 03, 2015 (GMT -0400)
Hillegas Road, Ft.Wayne, IN | | Change Station
CLOSE
Current Station
Personal Weather Station
Location: Fort Wayne, IN
Elevation: 823 ft
Nearby Weather Stations

Elev 823 ft 41.10 °N, 85.19 °W | Updated 10 minutes ago

Clear
Clear
84.2 °F
Feels Like 85 °F
N
4.2
Wind Variable Wind from North

Today
High -- | Low -- °F
--% Chance of Precip.
Yesterday
High -- | Low -- °F
Precip. -- in
6:38 AM 8:54 PM
Waning Gibbous, 83% visible
Pressure 29.84 in
Visibility 10.0 miles
Clouds Few 5500 ft
Heat Index 85 °F
Dew Point 63 °F
Humidity 49%
Rainfall 0.68 in
Snow Depth Not available.
UV 2 out of 12
Pollen 3.40 out of 12
Air Quality Not available.
Flu Activity Not available.
METAR KFWA 032254Z 32006KT 10SM FEW055 27/14 A2985 RMK AO2 SLP104 CB DSNT SE-S MOV E T02670144

More Conditions Fewer Conditions

Pressure 29.84 in
Visibility 10.0 miles
Clouds Few 5500 ft
Heat Index 85 °F
Dew Point 63 °F
Humidity 49%
Rainfall 0.68 in
Snow Depth Not available.
UV 2 out of 12
Pollen 3.40 out of 12
Air Quality Not available.
Flu Activity Not available.
METAR KFWA 032254Z 32006KT 10SM FEW055 27/14 A2985 RMK AO2 SLP104 CB DSNT SE-S MOV E T02670144

More Conditions Fewer Conditions

10-Day Weather Forecast

×

Almanac

Astronomy

Aug. 03, 2015 Rise Set
Actual Time
Civil Twilight
Nautical Twilight
Astronomical Twilight
Moon
Length of Visible Light
Length of Day
Tomorrow will be .
, % of the Moon is Illuminated

Today's Extremes

State Highs State Lows

Community

WunderPhotos

Upload Photos

1,843,791 photos uploaded!

WunderBlogs® & News

Nearby

Air Quality

  Air Quality AQ Index Pollutant
Not available.

Snow Depth

Station Depth Elevation

Earthquake Activity

City Distance Mag. Time & Date
Minimum magnitude displayed is 2.5.

Coastal Water Temperatures

Place Temperature

Stations

Nearby Weather Stations

Station Location Temp. Windchill Dew Point Humidity Wind Precip. Elev Updated Type